Time;durP1;ratioP1;P1;durP2;ratioP2;P2;SDS_P1;SDS_P2;PMS_P1;PMS_P2;Temp;Humidity;BMP_temperature;BMP_pressure;BME280_temperature;BME280_humidity;BME280_pressure;Samples;Min_cycle;Max_cycle;Signal;HPM_P1;HPM_P2
2021/10/09 00:01:10;;;;;;;4.70;2.83;;;;;;;20.64;49.40;102829.03;4995708;28;20066;-59
2021/10/09 00:03:36;;;;;;;4.60;2.53;;;;;;;20.63;49.24;102823.78;4995994;28;20054;-60
2021/10/09 00:06:04;;;;;;;5.53;3.08;;;;;;;20.61;49.22;102823.03;4995181;28;20031;-60
2021/10/09 00:08:31;;;;;;;4.70;2.85;;;;;;;20.59;49.25;102817.84;4995759;28;20382;-60
2021/10/09 00:10:56;;;;;;;5.55;2.88;;;;;;;20.60;49.21;102823.97;4995715;28;20441;-60
2021/10/09 00:13:22;;;;;;;4.68;2.63;;;;;;;20.59;49.40;102830.25;4994623;28;20559;-59
2021/10/09 00:15:47;;;;;;;4.57;2.63;;;;;;;20.58;49.29;102823.22;4995557;28;20026;-59
2021/10/09 00:18:12;;;;;;;4.00;2.50;;;;;;;20.57;49.10;102817.09;4995383;28;20420;-60
2021/10/09 00:20:37;;;;;;;4.90;3.10;;;;;;;20.57;49.04;102826.81;4994593;28;20053;-61
2021/10/09 00:23:03;;;;;;;4.60;3.00;;;;;;;20.56;49.06;102825.13;4995140;28;20026;-60
2021/10/09 00:25:28;;;;;;;4.80;2.80;;;;;;;20.55;48.99;102826.91;4994160;28;20314;-59
2021/10/09 00:27:53;;;;;;;4.30;3.00;;;;;;;20.53;48.82;102814.72;4995396;28;20014;-59
2021/10/09 00:30:19;;;;;;;5.00;2.95;;;;;;;20.51;49.18;102817.47;4994334;28;20038;-60
2021/10/09 00:32:44;;;;;;;5.40;3.20;;;;;;;20.51;49.05;102821.91;4994483;28;20034;-60
2021/10/09 00:35:10;;;;;;;5.43;2.97;;;;;;;20.50;49.19;102817.56;4994611;28;20034;-61
2021/10/09 00:37:35;;;;;;;5.35;3.30;;;;;;;20.48;49.09;102818.47;4994810;28;20030;-60
2021/10/09 00:40:01;;;;;;;5.37;2.97;;;;;;;20.46;49.05;102822.19;4993924;28;20117;-60
2021/10/09 00:42:26;;;;;;;5.85;3.40;;;;;;;20.45;49.15;102817.81;4994565;28;20318;-60
2021/10/09 00:44:51;;;;;;;5.32;3.05;;;;;;;20.43;49.28;102817.91;4994616;28;20042;-59
2021/10/09 00:47:17;;;;;;;4.82;2.85;;;;;;;20.43;49.23;102815.28;4993481;28;20026;-60
2021/10/09 00:49:43;;;;;;;5.60;3.63;;;;;;;20.42;49.34;102812.72;4994731;28;20022;-61
2021/10/09 00:52:10;;;;;;;5.80;3.28;;;;;;;20.42;48.97;102813.56;4994133;28;20090;-59
2021/10/09 00:54:38;;;;;;;4.80;2.95;;;;;;;20.41;49.17;102811.88;4993655;28;20022;-61
2021/10/09 00:57:04;;;;;;;5.22;3.25;;;;;;;20.40;49.29;102799.56;4994679;28;20072;-60
2021/10/09 00:59:29;;;;;;;5.00;3.08;;;;;;;20.41;48.78;102811.00;4994425;28;20410;-60
2021/10/09 01:02:01;;;;;;;5.18;3.10;;;;;;;20.40;49.04;102810.16;4993624;28;20046;-60
2021/10/09 01:04:27;;;;;;;5.35;3.35;;;;;;;20.40;48.80;102809.31;4994160;28;20632;-59
2021/10/09 01:06:52;;;;;;;5.00;3.13;;;;;;;20.38;48.88;102806.75;4994290;28;20046;-60
2021/10/09 01:09:18;;;;;;;5.35;3.22;;;;;;;20.39;49.00;102808.44;4993103;28;20042;-60
2021/10/09 01:11:43;;;;;;;4.93;3.22;;;;;;;20.38;49.03;102811.22;4994456;28;20101;-60
2021/10/09 01:14:09;;;;;;;4.63;3.15;;;;;;;20.36;49.14;102806.00;4994255;28;20058;-61
2021/10/09 01:16:35;;;;;;;5.68;3.50;;;;;;;20.35;49.26;102808.75;4993531;28;20056;-60
2021/10/09 01:19:00;;;;;;;5.10;3.30;;;;;;;20.34;48.97;102810.53;4994285;28;20034;-59
2021/10/09 01:21:26;;;;;;;5.75;3.63;;;;;;;20.33;49.17;102806.19;4993634;28;20109;-59
2021/10/09 01:23:52;;;;;;;6.30;3.60;;;;;;;20.32;48.94;102811.56;4993273;28;20022;-60
2021/10/09 01:26:19;;;;;;;5.03;3.50;;;;;;;20.31;49.11;102808.06;4993603;28;20030;-60
2021/10/09 01:28:49;;;;;;;5.47;3.47;;;;;;;20.30;49.00;102806.38;4993021;28;20489;-59
2021/10/09 01:31:15;;;;;;;6.40;3.65;;;;;;;20.29;49.00;102802.00;4993461;28;20379;-61
2021/10/09 01:33:42;;;;;;;5.13;3.25;;;;;;;20.29;48.93;102805.50;4993935;28;20073;-59
2021/10/09 01:36:07;;;;;;;5.50;3.53;;;;;;;20.28;49.09;102805.59;4992760;28;20042;-60
2021/10/09 01:38:35;;;;;;;4.90;3.20;;;;;;;20.28;48.95;102806.47;4993177;28;20379;-59
2021/10/09 01:41:01;;;;;;;5.43;3.70;;;;;;;20.27;48.88;102806.56;4993819;28;20532;-60
2021/10/09 01:43:27;;;;;;;5.60;3.45;;;;;;;20.27;48.94;102801.25;4992719;28;20105;-60
2021/10/09 01:45:53;;;;;;;6.85;3.95;;;;;;;20.25;49.00;102804.00;4993588;28;20061;-59
2021/10/09 01:48:35;;;;;;;6.07;3.60;;;;;;;20.25;48.83;102805.78;4993404;28;20030;-60
2021/10/09 01:51:02;;;;;;;5.40;3.63;;;;;;;20.24;48.89;102801.44;4992761;28;20022;-60
2021/10/09 01:53:30;;;;;;;5.68;3.75;;;;;;;20.23;49.03;102799.72;4993432;28;20097;-59
2021/10/09 01:55:55;;;;;;;6.20;3.35;;;;;;;20.22;48.76;102795.34;4993563;28;20045;-60
2021/10/09 01:58:21;;;;;;;5.50;3.65;;;;;;;20.21;48.85;102794.50;4992265;28;20026;-59
2021/10/09 02:00:46;;;;;;;5.28;3.55;;;;;;;20.22;48.70;102795.34;4993314;28;20046;-59
2021/10/09 02:03:11;;;;;;;5.70;3.83;;;;;;;20.22;48.95;102792.72;4992913;28;20026;-58
2021/10/09 02:05:37;;;;;;;6.03;3.63;;;;;;;20.20;48.67;102798.13;4992456;28;20026;-60
2021/10/09 02:08:04;;;;;;;5.68;3.95;;;;;;;20.21;48.60;102796.31;4993290;28;20022;-59
2021/10/09 02:10:30;;;;;;;6.28;3.95;;;;;;;20.19;48.84;102795.56;4993056;28;20490;-59
2021/10/09 02:12:57;;;;;;;5.80;3.80;;;;;;;20.18;48.66;102792.06;4991680;28;20096;-60
2021/10/09 02:15:30;;;;;;;5.75;3.80;;;;;;;20.17;48.66;102787.72;4992795;28;20034;-60
2021/10/09 02:18:26;;;;;;;6.97;4.05;;;;;;;20.17;48.62;102792.13;4992151;28;20085;-60
2021/10/09 02:26:19;;;;;;;5.85;3.90;;;;;;;20.14;48.64;102787.03;4991926;28;20057;-60
2021/10/09 02:28:45;;;;;;;6.10;4.00;;;;;;;20.13;48.63;102786.19;4992771;28;20466;-60
2021/10/09 02:31:13;;;;;;;6.50;3.83;;;;;;;20.11;49.05;102782.78;4992603;28;20018;-61
2021/10/09 02:33:38;;;;;;;6.72;4.18;;;;;;;20.11;48.77;102788.06;4991965;28;20288;-60
2021/10/09 02:36:06;;;;;;;5.57;3.95;;;;;;;20.11;48.72;102788.06;4992598;28;20030;-60
2021/10/09 02:38:31;;;;;;;5.60;3.88;;;;;;;20.11;48.63;102788.06;4992493;28;20028;-60
2021/10/09 02:40:57;;;;;;;6.35;4.10;;;;;;;20.10;48.66;102783.72;4991586;28;20042;-59
2021/10/09 02:43:25;;;;;;;5.43;3.80;;;;;;;20.09;48.38;102782.88;4991987;28;20038;-59
2021/10/09 02:45:50;;;;;;;5.82;4.05;;;;;;;20.08;48.33;102780.31;4992497;28;20397;-60
2021/10/09 02:48:16;;;;;;;5.57;3.63;;;;;;;20.09;48.40;102779.34;4991779;28;20113;-59
2021/10/09 02:50:43;;;;;;;5.25;3.30;;;;;;;20.08;48.34;102778.50;4992863;28;20423;-60
2021/10/09 02:53:10;;;;;;;5.53;3.88;;;;;;;20.05;48.58;102775.22;4991156;28;20493;-60
2021/10/09 02:55:35;;;;;;;5.30;3.60;;;;;;;20.05;48.33;102778.69;4992449;28;20371;-60
2021/10/09 02:58:00;;;;;;;6.30;4.05;;;;;;;20.05;48.36;102769.91;4992709;28;20029;-60
2021/10/09 03:00:26;;;;;;;7.10;4.30;;;;;;;20.02;48.41;102768.28;4991452;28;20029;-60
2021/10/09 03:02:51;;;;;;;6.10;4.28;;;;;;;20.01;48.42;102771.91;4992501;28;20031;-59
2021/10/09 03:05:18;;;;;;;5.73;3.70;;;;;;;20.01;48.49;102771.91;4992398;28;20099;-60
2021/10/09 03:07:43;;;;;;;6.05;3.72;;;;;;;20.00;48.37;102774.63;4991803;28;20276;-60
2021/10/09 03:10:10;;;;;;;6.53;4.30;;;;;;;19.98;48.43;102768.56;4992120;28;20442;-60
2021/10/09 03:12:35;;;;;;;5.55;3.78;;;;;;;19.98;48.18;102769.44;4992566;28;20026;-60
2021/10/09 03:15:09;;;;;;;6.93;4.38;;;;;;;19.97;48.36;102777.44;4991686;28;20022;-60
2021/10/09 03:17:34;;;;;;;6.93;4.20;;;;;;;19.96;48.34;102775.75;4992710;28;20030;-60
2021/10/09 03:19:59;;;;;;;5.95;4.18;;;;;;;19.95;48.17;102772.25;4992283;28;20031;-60
2021/10/09 03:22:25;;;;;;;5.57;3.97;;;;;;;19.94;48.33;102781.97;4991406;28;20041;-59
2021/10/09 03:24:51;;;;;;;6.35;4.25;;;;;;;19.93;48.24;102772.34;4992449;28;20129;-59
2021/10/09 03:27:16;;;;;;;5.80;4.05;;;;;;;19.93;48.33;102774.13;4992145;28;20128;-60
2021/10/09 03:29:41;;;;;;;5.78;4.30;;;;;;;19.91;48.17;102779.50;4991844;28;20105;-60
2021/10/09 03:32:10;;;;;;;6.85;4.25;;;;;;;19.90;48.30;102772.53;4992066;28;20494;-60
2021/10/09 03:34:35;;;;;;;5.45;3.95;;;;;;;19.88;48.41;102777.03;4991756;28;20041;-60
2021/10/09 03:37:02;;;;;;;5.72;3.83;;;;;;;19.89;48.35;102772.59;4991645;28;20026;-59
2021/10/09 03:39:28;;;;;;;6.90;4.85;;;;;;;19.87;48.22;102780.63;4992492;28;20482;-59
2021/10/09 03:41:59;;;;;;;5.45;4.00;;;;;;;19.87;48.40;102777.16;4992079;28;20065;-59
2021/10/09 03:44:30;;;;;;;6.18;4.35;;;;;;;19.86;48.43;102773.63;4991449;28;20110;-60
2021/10/09 03:47:01;;;;;;;6.13;4.32;;;;;;;19.86;48.23;102775.44;4992274;28;20031;-59
2021/10/09 03:54:58;;;;;;;6.82;4.35;;;;;;;19.83;48.22;102779.09;4992592;28;20071;-59
2021/10/09 03:57:23;;;;;;;5.78;3.80;;;;;;;19.83;48.11;102778.25;4991244;28;20065;-60
2021/10/09 03:59:48;;;;;;;5.90;4.23;;;;;;;19.82;48.23;102773.88;4992143;28;20390;-60
2021/10/09 04:02:14;;;;;;;5.97;4.30;;;;;;;19.81;48.27;102781.00;4995743;28;20291;-60
2021/10/09 04:04:39;;;;;;;6.10;4.47;;;;;;;19.81;48.27;102780.16;4995342;28;20296;-61
2021/10/09 04:07:04;;;;;;;6.60;4.78;;;;;;;19.80;48.20;102773.13;4995841;28;20347;-61
2021/10/09 04:09:29;;;;;;;6.10;4.77;;;;;;;19.80;48.02;102778.44;4995941;28;20356;-60
2021/10/09 04:11:55;;;;;;;6.10;4.20;;;;;;;19.79;48.15;102779.38;4995287;28;20287;-60
2021/10/09 04:14:23;;;;;;;6.23;4.43;;;;;;;19.78;48.15;102782.97;4996773;28;20268;-60
2021/10/09 04:16:48;;;;;;;7.47;4.60;;;;;;;19.78;48.21;102780.31;4996630;28;20284;-59
2021/10/09 04:19:13;;;;;;;6.47;4.63;;;;;;;19.77;47.92;102774.16;4994630;28;20104;-60
2021/10/09 04:21:39;;;;;;;6.37;4.37;;;;;;;19.77;48.08;102776.81;4995227;28;20287;-59
2021/10/09 04:24:04;;;;;;;6.72;4.32;;;;;;;19.76;48.10;102775.13;4994710;28;20295;-60
2021/10/09 04:26:29;;;;;;;6.55;4.80;;;;;;;19.75;48.15;102774.22;4994503;28;20043;-60
2021/10/09 04:28:55;;;;;;;6.45;4.35;;;;;;;19.73;48.00;102781.41;4995074;28;20045;-60
2021/10/09 04:31:20;;;;;;;7.72;4.72;;;;;;;19.73;48.04;102780.56;4994783;28;20390;-59
2021/10/09 04:33:45;;;;;;;6.70;5.00;;;;;;;19.72;47.90;102786.78;4994436;28;20023;-60
2021/10/09 04:36:12;;;;;;;6.82;4.75;;;;;;;19.71;48.08;102774.47;4994950;28;20054;-60
2021/10/09 04:38:37;;;;;;;6.78;4.97;;;;;;;19.71;47.88;102777.13;4994074;28;20101;-59
2021/10/09 04:41:03;;;;;;;6.75;4.55;;;;;;;19.70;47.98;102786.84;4994956;28;20463;-59
2021/10/09 04:43:28;;;;;;;6.97;4.72;;;;;;;19.70;47.97;102778.09;4995007;28;20053;-60
2021/10/09 04:45:53;;;;;;;7.20;5.13;;;;;;;19.69;47.90;102784.31;4993907;28;20141;-59
2021/10/09 04:48:18;;;;;;;6.07;4.67;;;;;;;19.69;47.83;102779.00;4994569;28;20631;-60
2021/10/09 04:50:44;;;;;;;6.93;4.75;;;;;;;19.67;47.98;102786.19;4994687;28;20284;-61
2021/10/09 04:53:09;;;;;;;6.43;5.00;;;;;;;19.66;47.99;102781.81;4993423;28;20138;-61
2021/10/09 04:55:38;;;;;;;6.22;5.10;;;;;;;19.66;47.97;102787.13;4994562;28;20050;-60
2021/10/09 04:58:03;;;;;;;6.78;4.95;;;;;;;19.65;47.90;102781.00;4994202;28;20133;-59
2021/10/09 05:00:28;;;;;;;7.45;4.63;;;;;;;19.65;47.85;102786.28;4993702;28;20042;-60
2021/10/09 05:02:54;;;;;;;6.40;4.65;;;;;;;19.64;48.00;102784.56;4994711;28;20026;-59
2021/10/09 05:05:19;;;;;;;6.22;4.57;;;;;;;19.63;47.85;102787.28;4994280;28;20026;-60
2021/10/09 05:07:44;;;;;;;6.60;4.75;;;;;;;19.62;47.85;102782.97;4993639;28;20044;-60
2021/10/09 05:10:10;;;;;;;6.93;4.57;;;;;;;19.58;47.81;102777.84;4994131;28;20035;-60
2021/10/09 05:12:36;;;;;;;7.03;5.18;;;;;;;19.58;48.04;102787.56;4994253;28;20778;-60
2021/10/09 05:15:03;;;;;;;6.53;4.80;;;;;;;19.57;47.88;102794.66;4993472;28;20046;-60
2021/10/09 05:17:31;;;;;;;6.68;5.03;;;;;;;19.56;48.08;102797.38;4994512;28;20041;-60
2021/10/09 05:19:56;;;;;;;7.72;5.20;;;;;;;19.56;47.82;102798.22;4994208;28;20025;-60
2021/10/09 05:22:22;;;;;;;7.53;5.28;;;;;;;19.56;47.76;102792.09;4993125;28;20523;-60
2021/10/09 05:24:50;;;;;;;6.78;5.03;;;;;;;19.57;47.97;102792.00;4994226;28;20026;-60
2021/10/09 05:27:15;;;;;;;6.75;4.65;;;;;;;19.61;48.38;102790.03;4993662;28;20031;-60
2021/10/09 05:29:41;;;;;;;6.65;4.57;;;;;;;19.68;48.51;102794.03;4993283;28;20032;-59
2021/10/09 05:32:07;;;;;;;6.13;4.22;;;;;;;19.73;49.28;102793.78;4993557;28;20040;-60
2021/10/09 05:34:32;;;;;;;7.03;4.40;;;;;;;19.82;49.16;102790.63;4993742;28;20027;-60
2021/10/09 05:37:02;;;;;;;6.70;4.10;;;;;;;19.89;49.32;102801.72;4993269;28;20096;-59
2021/10/09 05:39:28;;;;;;;5.15;3.60;;;;;;;19.94;49.38;102799.66;4993778;28;20069;-59
2021/10/09 05:41:53;;;;;;;6.05;4.07;;;;;;;20.01;49.06;102793.06;4992689;28;20426;-60
2021/10/09 05:44:19;;;;;;;5.57;3.60;;;;;;;20.05;49.08;102793.72;4993186;28;20474;-60
2021/10/09 05:46:47;;;;;;;6.65;3.55;;;;;;;20.09;48.97;102804.06;4993603;28;20100;-59
2021/10/09 05:49:13;;;;;;;5.20;3.60;;;;;;;20.14;48.84;102802.91;4992416;28;20034;-60
2021/10/09 05:51:50;;;;;;;5.20;3.72;;;;;;;20.18;48.74;102793.84;4993460;28;20556;-61
2021/10/09 05:54:20;;;;;;;5.78;3.80;;;;;;;20.24;48.81;102796.97;4992976;28;20119;-60
2021/10/09 05:59:45;;;;;;;5.70;3.60;;;;;;;20.41;48.17;102795.09;4993470;28;20129;-59
2021/10/09 06:25:04;;;;;;;5.80;3.67;;;;;;;20.48;48.18;102797.28;4993096;28;20695;-59
2021/10/09 06:37:24;;;;;;;7.15;4.53;;;;;;;20.86;46.47;102817.13;4992312;28;20041;-60
2021/10/09 06:48:55;;;;;;;6.00;3.58;;;;;;;21.02;45.57;102828.47;4993680;28;20455;-61
2021/10/09 06:59:36;;;;;;;6.00;3.83;;;;;;;21.05;46.14;102843.34;4992161;28;20584;-60
2021/10/09 07:02:01;;;;;;;6.15;3.95;;;;;;;21.11;45.92;102847.38;4992798;28;20042;-59
2021/10/09 07:04:27;;;;;;;6.25;4.03;;;;;;;21.16;45.79;102840.88;4992538;28;20477;-60
2021/10/09 07:06:54;;;;;;;7.53;4.82;;;;;;;21.20;45.43;102849.47;4992235;28;20041;-59
2021/10/09 07:09:21;;;;;;;7.50;4.63;;;;;;;21.19;45.66;102850.44;4992639;28;20018;-59
2021/10/09 07:11:47;;;;;;;6.60;3.90;;;;;;;21.22;46.08;102855.53;4992851;28;20386;-60
2021/10/09 07:14:12;;;;;;;7.13;3.70;;;;;;;21.24;45.74;102851.00;4991732;28;20033;-60
2021/10/09 07:16:37;;;;;;;7.83;4.00;;;;;;;21.26;45.64;102848.25;4992900;28;20121;-59
2021/10/09 07:19:03;;;;;;;7.28;4.45;;;;;;;21.23;46.07;102851.09;4992492;28;20307;-59
2021/10/09 07:21:28;;;;;;;7.53;3.97;;;;;;;21.18;46.16;102849.56;4992043;28;20035;-59
2021/10/09 07:23:54;;;;;;;7.82;4.10;;;;;;;21.16;46.37;102851.47;4992705;28;20385;-60
2021/10/09 07:26:19;;;;;;;5.70;3.63;;;;;;;21.13;46.40;102848.16;4992085;28;20053;-59
2021/10/09 07:28:45;;;;;;;6.53;4.22;;;;;;;21.07;46.38;102853.84;4992185;28;20022;-59
2021/10/09 07:31:13;;;;;;;8.18;4.68;;;;;;;21.00;46.74;102858.69;4992944;28;20023;-62
2021/10/09 07:33:38;;;;;;;7.65;4.78;;;;;;;20.91;47.05;102861.91;4993067;28;20039;-61
2021/10/09 07:36:03;;;;;;;6.70;4.50;;;;;;;20.91;47.01;102864.56;4998649;28;20390;-61
2021/10/09 07:38:29;;;;;;;8.30;4.80;;;;;;;20.90;46.97;102861.03;4996478;28;20034;-61
2021/10/09 07:40:54;;;;;;;7.03;4.57;;;;;;;20.92;46.69;102863.59;4996216;28;20034;-63
2021/10/09 07:43:20;;;;;;;7.65;5.22;;;;;;;20.95;46.97;102869.56;4996389;28;20041;-62
2021/10/09 07:45:45;;;;;;;8.57;5.40;;;;;;;21.02;46.92;102864.72;4996558;28;20049;-61
2021/10/09 07:48:11;;;;;;;8.45;5.10;;;;;;;21.07;46.70;102861.81;4995131;28;20035;-61
2021/10/09 07:50:37;;;;;;;9.30;5.88;;;;;;;21.12;46.64;102865.00;4996491;28;20026;-61
2021/10/09 07:53:02;;;;;;;9.13;5.22;;;;;;;21.15;46.59;102870.13;4996402;28;20098;-62
2021/10/09 07:55:27;;;;;;;8.25;5.10;;;;;;;21.14;47.06;102869.28;4995860;28;20050;-63
2021/10/09 07:57:53;;;;;;;9.32;5.18;;;;;;;21.15;48.06;102872.78;4996328;28;20035;-62
2021/10/09 08:00:20;;;;;;;8.95;5.15;;;;;;;21.16;48.56;102874.50;4995713;28;20018;-62
2021/10/09 08:02:52;;;;;;;11.73;5.85;;;;;;;21.17;48.69;102877.03;4995364;28;20110;-61
2021/10/09 08:05:18;;;;;;;9.98;5.78;;;;;;;21.19;48.63;102872.50;4997209;28;20466;-61
2021/10/09 08:07:44;;;;;;;10.65;5.45;;;;;;;21.20;48.81;102876.84;4997531;28;20033;-64
2021/10/09 08:10:10;;;;;;;9.05;5.55;;;;;;;21.27;49.08;102879.09;4997322;28;20085;-62
2021/10/09 08:12:35;;;;;;;11.82;6.57;;;;;;;21.32;48.58;102879.69;4996731;28;20455;-63
2021/10/09 08:15:05;;;;;;;10.83;5.83;;;;;;;21.38;48.59;102881.94;4996142;28;20054;-63
2021/10/09 08:17:31;;;;;;;11.13;5.85;;;;;;;21.40;48.71;102888.00;4995750;28;20302;-65
2021/10/09 08:19:56;;;;;;;9.00;5.78;;;;;;;21.43;48.59;102885.16;4996468;28;20108;-64
2021/10/09 08:22:24;;;;;;;11.48;6.28;;;;;;;21.44;48.45;102892.16;4995417;28;20463;-62
2021/10/09 08:28:05;;;;;;;9.13;5.90;;;;;;;21.42;48.85;102888.75;4975705;28;20088;-61
2021/10/09 08:38:51;;;;;;;11.70;6.13;;;;;;;21.59;48.69;102898.31;4994856;28;20058;-61
2021/10/09 08:41:17;;;;;;;9.80;6.15;;;;;;;21.60;48.59;102894.69;4995135;28;20510;-60
2021/10/09 08:43:43;;;;;;;11.00;6.30;;;;;;;21.60;48.56;102902.66;4995702;28;20031;-62
2021/10/09 08:46:09;;;;;;;10.02;6.13;;;;;;;21.58;48.88;102904.56;4994155;28;20482;-61
2021/10/09 08:48:40;;;;;;;10.32;5.70;;;;;;;21.59;48.71;102897.47;4995518;28;20050;-61
2021/10/09 08:51:06;;;;;;;9.75;5.93;;;;;;;21.58;48.71;102899.25;4995383;28;20049;-61
2021/10/09 08:53:36;;;;;;;11.15;5.97;;;;;;;21.61;48.51;102898.22;4995210;28;20081;-60
2021/10/09 08:56:01;;;;;;;12.30;6.63;;;;;;;21.60;48.75;102896.50;4996671;28;20084;-61
2021/10/09 08:59:04;;;;;;;9.90;5.72;;;;;;;21.55;48.77;102899.47;4995678;28;20478;-61
2021/10/09 09:01:36;;;;;;;8.32;5.68;;;;;;;21.56;48.75;102898.53;4995675;28;20501;-61
2021/10/09 09:40:05;;;;;;;;;;;;;;;21.53;48.44;102885.44;4995647;28;20426;-63
2021/10/09 09:42:30;;;;;;;9.50;5.93;;;;;;;21.60;48.24;102880.59;4995080;28;19925;-62
2021/10/09 09:44:58;;;;;;;9.65;6.78;;;;;;;21.66;48.03;102883.69;4995101;28;20453;-60
2021/10/09 09:47:35;;;;;;;8.77;6.18;;;;;;;21.69;48.06;102875.53;4994898;28;20034;-59
2021/10/09 09:50:06;;;;;;;9.68;6.55;;;;;;;21.72;47.78;102872.69;4994061;28;20187;-61
2021/10/09 09:52:39;;;;;;;9.95;6.15;;;;;;;21.75;47.88;102874.31;4995197;28;20054;-61
2021/10/09 09:55:08;;;;;;;8.88;6.00;;;;;;;21.72;47.95;102870.03;4993716;28;20031;-61
2021/10/09 09:57:35;;;;;;;9.20;5.82;;;;;;;21.71;47.90;102872.78;4994988;28;20040;-61
2021/10/09 10:00:06;;;;;;;12.65;5.88;;;;;;;21.67;47.98;102866.84;4993950;28;20065;-61
2021/10/09 10:02:37;;;;;;;9.70;6.15;;;;;;;21.63;48.03;102867.97;4993237;28;20097;-61
2021/10/09 10:05:03;;;;;;;10.18;5.82;;;;;;;21.59;48.14;102868.28;4994188;28;20025;-60
2021/10/09 10:07:29;;;;;;;9.73;5.85;;;;;;;21.56;48.08;102864.88;4996368;28;20394;-61
2021/10/09 10:09:55;;;;;;;8.52;5.93;;;;;;;21.55;48.39;102868.50;4994713;28;20034;-60
2021/10/09 10:12:23;;;;;;;10.20;6.10;;;;;;;21.54;48.13;102864.13;4994707;28;20137;-60
2021/10/09 10:14:49;;;;;;;11.25;6.13;;;;;;;21.55;48.23;102870.28;4993905;28;20280;-61
2021/10/09 10:17:44;;;;;;;9.85;6.20;;;;;;;21.54;48.40;102866.78;4992721;28;20042;-61
2021/10/09 10:20:12;;;;;;;9.25;6.20;;;;;;;21.58;48.37;102861.28;4992994;28;20481;-61
2021/10/09 10:22:37;;;;;;;9.00;6.03;;;;;;;21.57;48.51;102865.75;4994121;28;20022;-62
2021/10/09 10:25:27;;;;;;;10.13;7.10;;;;;;;21.60;48.19;102864.69;4993120;28;20092;-61
2021/10/09 10:28:06;;;;;;;9.65;6.43;;;;;;;21.66;47.95;102866.94;4994229;28;20037;-61
2021/10/09 10:30:40;;;;;;;8.38;6.32;;;;;;;21.68;48.06;102862.38;4992794;28;20054;-60
2021/10/09 10:33:05;;;;;;;10.75;6.13;;;;;;;21.72;47.86;102863.88;4993179;28;20473;-60
2021/10/09 10:35:30;;;;;;;8.20;5.70;;;;;;;21.68;48.11;102868.56;4993337;28;20062;-60
2021/10/09 10:38:01;;;;;;;9.68;5.30;;;;;;;21.61;48.03;102858.44;4992273;28;20038;-60
2021/10/09 10:40:54;;;;;;;9.88;6.80;;;;;;;21.54;48.02;102865.94;4992863;28;20113;-62
2021/10/09 10:46:33;;;;;;;11.00;6.03;;;;;;;21.37;48.76;102867.81;4991922;28;20053;-65
2021/10/09 10:49:16;;;;;;;10.07;6.13;;;;;;;21.32;48.86;102859.31;4993157;28;20040;-65
2021/10/09 10:51:54;;;;;;;9.20;5.40;;;;;;;21.29;48.90;102856.00;4992189;28;20047;-64
2021/10/09 10:59:29;;;;;;;;;;;;;;;21.33;49.08;102858.38;4994191;28;20034;-61
2021/10/09 11:02:16;;;;;;;11.38;6.03;;;;;;;21.44;48.76;102848.88;4993596;28;19917;-61
2021/10/09 11:04:45;;;;;;;10.98;6.18;;;;;;;21.50;48.66;102848.50;4993483;28;20050;-61
2021/10/09 11:07:11;;;;;;;8.68;6.10;;;;;;;21.51;48.67;102850.22;4992265;28;20033;-64
2021/10/09 11:09:38;;;;;;;8.82;6.07;;;;;;;21.50;48.70;102856.47;4994327;28;20197;-60
2021/10/09 11:12:18;;;;;;;10.77;6.20;;;;;;;21.54;48.66;102847.38;4996683;28;20467;-62
2021/10/09 11:14:44;;;;;;;11.98;6.03;;;;;;;21.58;48.46;102845.38;4996428;28;20046;-62
2021/10/09 11:17:09;;;;;;;11.23;6.70;;;;;;;21.59;48.50;102853.22;4996740;28;20022;-62
2021/10/09 11:19:42;;;;;;;9.43;6.53;;;;;;;21.63;48.37;102849.41;4996095;28;20449;-61
2021/10/09 11:22:09;;;;;;;10.50;6.35;;;;;;;21.67;48.08;102850.06;4997716;28;20030;-60
2021/10/09 11:24:48;;;;;;;9.10;6.10;;;;;;;21.69;48.50;102848.16;4996729;28;20045;-60
2021/10/09 11:27:15;;;;;;;9.48;6.10;;;;;;;21.67;48.74;102842.13;4996165;28;20029;-60
2021/10/09 11:29:42;;;;;;;8.93;5.97;;;;;;;21.63;49.08;102848.56;4997263;28;20509;-60
2021/10/09 11:32:09;;;;;;;11.45;6.00;;;;;;;21.63;48.69;102843.25;4997097;28;20081;-60
2021/10/09 11:34:49;;;;;;;10.32;5.88;;;;;;;21.59;48.96;102841.75;4997102;28;20029;-61
2021/10/09 11:37:15;;;;;;;8.35;5.85;;;;;;;21.58;48.74;102834.75;4997376;28;20136;-61
2021/10/09 11:39:48;;;;;;;11.15;6.25;;;;;;;21.55;48.62;102828.69;4997440;28;20030;-62
2021/10/09 11:42:15;;;;;;;12.48;6.80;;;;;;;21.54;48.66;102834.94;4995483;28;20070;-61
2021/10/09 11:44:49;;;;;;;9.20;6.13;;;;;;;21.54;48.62;102839.41;4996321;28;20061;-60
2021/10/09 11:47:38;;;;;;;7.85;5.82;;;;;;;21.56;48.44;102830.38;4996713;28;20046;-60
2021/10/09 11:55:34;;;;;;;11.48;6.13;;;;;;;21.62;48.56;102821.19;4996226;28;20045;-60
2021/10/09 11:58:03;;;;;;;9.32;6.20;;;;;;;21.66;48.29;102829.78;4997086;28;20023;-60
2021/10/09 12:00:28;;;;;;;9.30;5.60;;;;;;;21.67;48.31;102824.38;4996397;28;20031;-60
2021/10/09 12:03:24;;;;;;;9.75;6.25;;;;;;;21.67;48.02;102824.38;4995352;28;20093;-60
2021/10/09 12:05:52;;;;;;;7.93;5.75;;;;;;;21.69;48.07;102826.94;4996375;28;20117;-60
2021/10/09 12:11:31;;;;;;;8.85;6.28;;;;;;;21.65;48.33;102823.66;4995628;28;20030;-59
2021/10/09 12:14:05;;;;;;;8.88;5.47;;;;;;;21.65;48.22;102822.78;4994956;28;20518;-60
2021/10/09 12:16:36;;;;;;;9.73;5.93;;;;;;;21.63;48.35;102817.56;4993920;28;20536;-60
2021/10/09 12:19:05;;;;;;;8.02;5.65;;;;;;;21.63;48.67;102820.22;4995395;28;20195;-59
2021/10/09 12:21:34;;;;;;;8.18;5.53;;;;;;;21.62;48.39;102820.31;4995120;28;20026;-60
2021/10/09 12:24:11;;;;;;;9.20;5.60;;;;;;;21.61;48.48;102814.16;4994987;28;20022;-60
2021/10/09 12:26:36;;;;;;;9.60;5.93;;;;;;;21.62;48.42;102809.69;4996506;28;20501;-60
2021/10/09 12:29:06;;;;;;;9.32;5.47;;;;;;;21.63;48.58;102816.72;4996509;28;20026;-60
2021/10/09 12:31:35;;;;;;;7.88;5.38;;;;;;;21.64;48.64;102816.63;4995393;28;20026;-60
2021/10/09 12:34:04;;;;;;;8.07;5.38;;;;;;;21.64;48.41;102806.00;4996307;28;20109;-59
2021/10/09 12:36:39;;;;;;;9.05;5.85;;;;;;;21.66;48.42;102808.56;4996315;28;20101;-57
2021/10/09 12:39:24;;;;;;;9.02;5.82;;;;;;;21.66;48.56;102805.91;4996175;28;20021;-60
2021/10/09 12:41:51;;;;;;;8.10;5.60;;;;;;;21.68;48.64;102804.00;4996315;28;20053;-60
2021/10/09 12:44:18;;;;;;;8.30;5.47;;;;;;;21.68;48.66;102799.56;4994323;28;20380;-60
2021/10/09 12:46:43;;;;;;;9.13;5.75;;;;;;;21.72;48.67;102805.50;4995285;28;20037;-58
2021/10/09 12:49:12;;;;;;;8.35;5.18;;;;;;;21.74;48.53;102793.81;4994740;28;20022;-59
2021/10/09 12:51:37;;;;;;;9.30;5.28;;;;;;;21.76;48.61;102800.84;4994303;28;20108;-58
2021/10/09 12:54:09;;;;;;;8.75;5.85;;;;;;;21.78;48.46;102794.50;4995019;28;20410;-59
2021/10/09 12:56:37;;;;;;;7.25;5.70;;;;;;;21.84;48.49;102786.13;4995182;28;20377;-58
2021/10/09 12:59:03;;;;;;;8.13;5.13;;;;;;;21.88;48.21;102784.94;4993971;28;20027;-58
2021/10/09 13:01:29;;;;;;;8.60;5.50;;;;;;;21.89;48.32;102785.81;4994861;28;20397;-59
2021/10/09 13:03:54;;;;;;;8.55;5.28;;;;;;;21.91;48.16;102778.59;4994861;28;20085;-61
2021/10/09 13:06:19;;;;;;;9.15;5.40;;;;;;;21.94;48.26;102783.69;4993873;28;20038;-61
2021/10/09 13:08:48;;;;;;;7.43;5.07;;;;;;;22.04;48.00;102779.47;4995065;28;20030;-61
2021/10/09 13:11:14;;;;;;;9.30;5.68;;;;;;;22.09;47.66;102777.34;4994674;28;20288;-60
2021/10/09 13:13:39;;;;;;;9.75;5.35;;;;;;;22.04;47.59;102779.47;4993995;28;20045;-59
2021/10/09 13:16:07;;;;;;;7.63;4.80;;;;;;;21.96;47.91;102775.63;4994331;28;20466;-59
2021/10/09 13:18:33;;;;;;;9.23;6.03;;;;;;;21.86;48.06;102767.44;4995059;28;20038;-60
2021/10/09 13:20:58;;;;;;;7.60;5.20;;;;;;;21.77;48.26;102774.22;4994265;28;20157;-60
2021/10/09 13:23:24;;;;;;;8.65;5.38;;;;;;;21.71;48.38;102771.97;4994654;28;20466;-60
2021/10/09 13:25:54;;;;;;;9.55;5.65;;;;;;;21.67;48.36;102771.31;4994791;28;20397;-61
2021/10/09 13:28:19;;;;;;;8.25;5.10;;;;;;;21.64;48.55;102776.81;4993910;28;20038;-61
2021/10/09 13:30:45;;;;;;;8.98;5.70;;;;;;;21.59;48.83;102768.31;4997039;28;20038;-60
2021/10/09 13:33:10;;;;;;;8.82;5.38;;;;;;;21.56;48.78;102771.19;4993353;28;20022;-60
2021/10/09 13:35:35;;;;;;;6.80;4.95;;;;;;;21.53;48.70;102779.34;4995257;28;20026;-60